Aviation Digital Data Service (ADDS)

Output produced by METARs form (0748 UTC 24 May 2018)
found at http://www.aviationweather.gov/adds/metars/
 
TAF LOXA 240515Z 2406/2415 VRB03KT 9999 FEW070 SCT130 BKN280 
     BECMG 2407/2409 04008KT -SHRA FEW050TCU BKN070 
     TEMPO 2410/2415 VRB10KT SHRA FEW050CB BKN060 
     PROB40 
     TEMPO 2411/2415 VRB15G25KT 4000 TSRA FEW040CB BKN050
       
LOWG 240720Z VRB02KT 9999 FEW040 SCT050 BKN140 19/15 Q1019 NOSIG
TAF LOWG 240515Z 2406/2506 VRB02KT 9999 FEW040 SCT070 BKN100 TX22/2412Z TN14/2503Z 
     TEMPO 2406/2506 VRB10KT -SHRA SCT040 FEW050CB BKN060 
     PROB40 
     TEMPO 2409/2420 VRB15G25KT 5000 TSRA SCT040CB BKN050 
     PROB30 
     TEMPO 2500/2506 1200 BCFG SCT002
       
LOWI 240720Z 12005KT 9999 SCT007 BKN100 15/13 Q1019 NOSIG
TAF LOWI 240515Z 2406/2506 08004KT 9999 FEW007 SCT070 BKN120 TX22/2414Z TN12/2504Z 
     PROB40 
     TEMPO 2406/2408 12010KT SHRA SCT007 FEW060TCU BKN080 
     BECMG 2409/2411 08008KT SCT070 FEW070TCU 
     TEMPO 2411/2420 VRB15G25KT 6000 TSRA SCT070CB BKN080 
     BECMG 2419/2421 27004KT FEW010 
     PROB40 
     TEMPO 2500/2506 BKN010
       
LOWK 240720Z VRB01KT 9999 FEW012 SCT050 BKN150 17/15 Q1020 NOSIG
TAF LOWK 240515Z 2406/2506 VRB02KT 9999 SCT040 SCT100 TX21/2414Z TN14/2504Z 
     TEMPO 2406/2506 -SHRA SCT040 FEW045TCU BKN070 
     PROB40 
     TEMPO 2409/2506 VRB10KT SHRA FEW045CB BKN060 
     PROB30 
     TEMPO 2411/2420 VRB15G25KT 5000 TSRA
       
LOWL 240720Z 12006KT 090V160 CAVOK 20/15 Q1018 NOSIG
TAF LOWL 240515Z 2406/2506 08005KT CAVOK TX25/2413Z TN15/2503Z 
     TEMPO 2407/2411 10010KT 
     TEMPO 2411/2506 VRB02KT SHRA BKN035 FEW040CB 
     PROB40 
     TEMPO 2413/2502 29015G25KT 3000 TSRA 
     PROB30 
     TEMPO 2501/2506 25004KT 2000 MIFG BKN012
       
LOWS 240720Z VRB01KT 9999 FEW012 BKN120 17/14 Q1019 NOSIG
TAF LOWS 240515Z 2406/2506 VRB02KT 9999 FEW020 SCT080 BKN200 TX22/2414Z TN13/2503Z 
     BECMG 2407/2409 34006KT 
     TEMPO 2412/2420 15015G30KT 6000 TSRA SCT040CB BKN060 
     BECMG 2418/2420 15005KT
       
LOWW 240720Z 03004KT 340V070 CAVOK 21/16 Q1019 NOSIG
TAF LOWW 240515Z 2406/2512 36004KT CAVOK TX25/2412Z TN16/2502Z 
     TEMPO 2406/2409 9999 FEW040TCU BKN300 
     FM240900 06005KT 9999 SCT030 FEW030CB BKN300 
     TEMPO 2411/2418 VRB10G20KT 5000 TSRA BKN020 SCT030CB 
     FM242000 VRB02KT 9999 FEW040 SCT300 
     PROB30 
     TEMPO 2423/2509 35007KT 2000 SHRA FEW008 BKN012 FEW020CB 
     PROB40 
     TEMPO 2509/2512 VRB10G20KT 4000 TSRA BKN030 FEW030CB
       
TAF LOXT 240515Z 2406/2415 06006KT 9999 FEW040 SCT300 
     TEMPO 2410/2415 12012KT BKN040 FEW050CB 
     PROB40 
     TEMPO 2412/2415 VRB015G25KT 3000 TSRA
       
LOAV 240700Z VRB02KT 10KM FEW030CU SCT080AC BKN300CI 20/16
TAF LOAV 240700Z 2407/2415 VRB02KT 9999 FEW030 SCT100 BKN300 
     TEMPO 2409/2411 05007KT FEW040 FEW050CB BKN300 
     TEMPO 2411/2415 VRB10G20KT 3000 TSRA FEW010 BKN020 SCT040CB
       
LOAN 240700Z VRB02KT 10KM FEW020CU SCT080AC BKN300CI
TAF LOAN 240600Z 2406/2415 VRB02KT 9999 FEW020 SCT100 BKN300 
     TEMPO 2409/2411 08007KT FEW030 FEW040CB 
     TEMPO 2411/2415 VRB10G20KT 3000 TSRA SCT010 BKN020 SCT040CB
       
TAF LOXN 240515Z 2406/2415 VRB03KT 9999 FEW035 SCT090 BKN300 
     TEMPO 2410/2415 VRB15G25KT 3000 TSRA BKN030 FEW040CB
       
LOXZ 240720Z VRB02KT 12KM SCT009ST BKN100AC 16/13 Q1021 NOSIG
TAF LOXZ 240515Z 2406/2415 VRB03KT 9999 FEW025 SCT060 BKN100 
     TEMPO 2406/2415 VRB10KT SHRA FEW010 SCT040TCU BKN050 
     PROB40 
     TEMPO 2409/2415 VRB15KT 5000 TSRA BKN030CB